createdAt,value
2018-02-06T00:04:57.559Z,100104.59
2018-02-06T00:11:02.190Z,100092.45
2018-02-06T00:17:07.864Z,100097.37
2018-02-06T00:23:12.588Z,100095.66
2018-02-06T00:29:17.959Z,100084.02
2018-02-06T00:35:23.832Z,100078.59
2018-02-06T00:41:28.381Z,100061.46
2018-02-06T00:47:33.167Z,100054.04
2018-02-06T00:53:38.416Z,100041.00
2018-02-06T00:59:42.976Z,100038.48
2018-02-06T01:05:47.482Z,100036.66
2018-02-06T01:11:53.031Z,100017.56
2018-02-06T01:17:58.419Z,100003.20
2018-02-06T01:24:03.664Z,99998.51
2018-02-06T01:30:08.188Z,99993.91
2018-02-06T01:36:12.868Z,99991.48
2018-02-06T01:42:17.970Z,99977.73
2018-02-06T01:48:23.770Z,99972.50
2018-02-06T01:54:28.456Z,99954.77
2018-02-06T02:00:34.794Z,99947.17
2018-02-06T02:06:39.303Z,99937.02
2018-02-06T02:12:43.834Z,99921.20
2018-02-06T02:18:48.588Z,99915.66
2018-02-06T02:24:53.684Z,99912.78
2018-02-06T02:30:58.163Z,99904.67
2018-02-06T02:37:02.883Z,99896.19
2018-02-06T04:38:37.940Z,99768.84
2018-02-06T04:44:42.750Z,99762.45
2018-02-06T04:50:47.264Z,99748.92
2018-02-06T04:56:52.645Z,99731.12
2018-02-06T05:02:57.306Z,99731.95
2018-02-06T05:09:02.138Z,99723.45
2018-02-06T05:15:06.637Z,99713.89
2018-02-06T05:21:11.410Z,99704.28
2018-02-06T05:27:15.895Z,99689.91
2018-02-06T05:33:21.099Z,99685.52
2018-02-06T05:39:25.854Z,99691.31
2018-02-06T05:45:30.442Z,99675.08
2018-02-06T05:51:34.956Z,99678.83
2018-02-06T05:57:39.467Z,99681.95
2018-02-06T06:03:44.146Z,99682.27
2018-02-06T06:09:49.056Z,99680.13
2018-02-06T06:15:55.036Z,99679.86
2018-02-06T06:21:59.932Z,99677.88
2018-02-06T06:28:04.507Z,99669.89
2018-02-06T06:34:09.422Z,99663.73
2018-02-06T06:40:13.987Z,99653.13
2018-02-06T06:46:18.804Z,99654.53
2018-02-06T06:52:24.488Z,99649.52
2018-02-06T06:58:29.103Z,99648.42
2018-02-06T07:04:33.624Z,99648.44
2018-02-06T07:10:38.158Z,99650.50
2018-02-06T07:16:43.439Z,99647.34
2018-02-06T07:22:48.818Z,99651.20
2018-02-06T07:28:53.807Z,99644.04
2018-02-06T07:34:58.292Z,99629.06
2018-02-06T07:41:02.926Z,99632.41
2018-02-06T07:47:07.530Z,99629.33
2018-02-06T07:53:12.164Z,99619.66
2018-02-06T07:59:17.414Z,99619.41
2018-02-06T08:05:21.928Z,99610.16
2018-02-06T08:11:27.248Z,99614.81
2018-02-06T08:17:31.778Z,99608.80
2018-02-06T08:23:36.418Z,99600.91
2018-02-06T08:29:40.937Z,99600.07
2018-02-06T08:35:46.199Z,99590.19
2018-02-06T08:41:51.096Z,99586.03
2018-02-06T08:47:55.786Z,99582.13
2018-02-06T08:54:00.380Z,99570.20
2018-02-06T09:00:04.862Z,99560.96
2018-02-06T09:06:09.362Z,99548.41
2018-02-06T09:12:14.167Z,99542.77
2018-02-06T09:18:19.561Z,99533.63
2018-02-06T09:24:24.287Z,99516.52
2018-02-06T09:30:28.811Z,99515.26
2018-02-06T09:36:34.278Z,99502.56
2018-02-06T09:42:38.851Z,99494.55
2018-02-06T09:48:44.177Z,99492.28
2018-02-06T09:54:49.435Z,99491.55
2018-02-06T10:00:54.222Z,99488.83
2018-02-06T10:06:59.586Z,99482.84
2018-02-06T10:13:04.072Z,99488.59
2018-02-06T10:19:08.587Z,99485.51
2018-02-06T10:25:14.700Z,99474.45
2018-02-06T10:31:19.736Z,99468.30
2018-02-06T10:37:24.350Z,99476.42
2018-02-06T10:43:29.069Z,99466.42
2018-02-06T10:49:33.827Z,99452.30
2018-02-06T10:55:38.372Z,99444.63
2018-02-06T11:01:42.921Z,99439.81
2018-02-06T11:07:47.409Z,99443.80
2018-02-06T11:13:52.702Z,99432.53
2018-02-06T11:19:57.322Z,99427.02
2018-02-06T11:26:01.930Z,99412.13
2018-02-06T11:32:06.426Z,99400.36
2018-02-06T11:38:11.664Z,99393.82
2018-02-06T11:44:16.149Z,99386.53
2018-02-06T11:50:21.396Z,99371.27
2018-02-06T11:56:26.029Z,99369.27
2018-02-06T12:02:30.561Z,99360.50
2018-02-06T12:08:35.812Z,99366.23
2018-02-06T12:14:40.314Z,99356.96
2018-02-06T12:20:45.912Z,99345.34
2018-02-06T12:26:50.696Z,99351.34
2018-02-06T12:32:55.957Z,99344.96
2018-02-06T12:39:00.457Z,99335.95
2018-02-06T12:45:04.949Z,99332.85
2018-02-06T12:51:09.531Z,99317.04
2018-02-06T12:57:14.122Z,99309.17
2018-02-06T13:03:18.805Z,99294.02
2018-02-06T13:09:23.857Z,99291.84
2018-02-06T13:15:28.319Z,99286.70
2018-02-06T13:21:32.821Z,99288.67
2018-02-06T13:27:38.068Z,99279.12
2018-02-06T13:33:42.542Z,99277.47
2018-02-06T13:39:47.135Z,99264.48
2018-02-06T13:45:52.071Z,99261.17
2018-02-06T13:51:56.758Z,99255.67
2018-02-06T13:58:01.258Z,99241.20
2018-02-06T14:04:06.735Z,99237.88
2018-02-06T14:10:11.255Z,99244.80
2018-02-06T14:16:15.885Z,99244.80
2018-02-06T14:22:20.681Z,99230.02
2018-02-06T14:28:25.433Z,99217.67
2018-02-06T14:34:30.063Z,99216.47
2018-02-06T14:40:34.642Z,99221.22
2018-02-06T14:46:39.876Z,99211.77
2018-02-06T14:52:44.356Z,99201.06
2018-02-06T14:58:48.851Z,99191.63
2018-02-06T15:04:53.392Z,99190.97
2018-02-06T15:10:58.109Z,99183.97
2018-02-06T15:17:02.611Z,99177.77
2018-02-06T15:23:07.224Z,99171.66
2018-02-06T15:29:11.721Z,99185.19
2018-02-06T15:35:16.307Z,99188.62
2018-02-06T15:41:20.961Z,99192.28
2018-02-06T15:47:25.581Z,99186.64
2018-02-06T15:53:30.172Z,99184.99
2018-02-06T15:59:35.484Z,99185.66
2018-02-06T16:05:40.029Z,99174.42
2018-02-06T16:11:44.523Z,99166.04
2018-02-06T16:17:49.218Z,99174.58
2018-02-06T16:23:53.868Z,99192.11
2018-02-06T16:29:58.529Z,99182.12
2018-02-06T16:36:03.061Z,99193.02
2018-02-06T16:42:07.569Z,99206.70
2018-02-06T16:48:12.198Z,99200.25
2018-02-06T16:54:16.828Z,99201.50
2018-02-06T17:00:23.025Z,99209.27
2018-02-06T17:06:27.513Z,99202.17
2018-02-06T17:12:32.827Z,99203.52
2018-02-06T17:18:37.424Z,99214.41
2018-02-06T17:24:41.914Z,99201.59
2018-02-06T17:30:46.425Z,99200.18
2018-02-06T17:36:51.015Z,99207.27
2018-02-06T17:42:56.477Z,99210.09
2018-02-06T17:49:01.128Z,99213.97
2018-02-06T17:55:05.635Z,99199.67
2018-02-06T18:01:10.118Z,99195.63
2018-02-06T18:07:14.687Z,99193.77
2018-02-06T18:13:20.115Z,99202.47
2018-02-06T18:19:24.982Z,99198.98
2018-02-06T18:25:29.567Z,99195.38
2018-02-06T18:31:34.139Z,99192.16
2018-02-06T18:37:38.907Z,99190.88
2018-02-06T18:43:44.223Z,99196.34
2018-02-06T18:49:48.703Z,99200.22
2018-02-06T18:55:53.177Z,99205.17
2018-02-06T19:01:57.672Z,99198.77
2018-02-06T19:08:02.257Z,99188.84
2018-02-06T19:14:06.755Z,99183.75
2018-02-06T19:20:12.100Z,99181.29
2018-02-06T19:26:17.048Z,99175.59
2018-02-06T19:32:22.495Z,99174.59
2018-02-06T19:38:27.828Z,99193.64
2018-02-06T19:44:33.101Z,99199.67
2018-02-06T19:50:37.640Z,99198.98
2018-02-06T19:56:42.210Z,99191.95
2018-02-06T20:02:47.583Z,99189.14
2018-02-06T20:08:54.559Z,99196.98
2018-02-06T20:14:59.172Z,99194.47
2018-02-06T20:21:03.656Z,99186.78
2018-02-06T20:27:08.199Z,99185.13
2018-02-06T20:33:12.766Z,99180.95
2018-02-06T20:39:17.867Z,99183.44
2018-02-06T20:45:22.398Z,99184.03
2018-02-06T20:51:26.996Z,99186.37
2018-02-06T20:57:31.635Z,99177.53
2018-02-06T21:03:36.143Z,99192.37
2018-02-06T21:09:41.535Z,99184.17
2018-02-06T21:15:46.053Z,99180.05
2018-02-06T21:21:50.764Z,99176.02
2018-02-06T21:27:55.516Z,99181.69
2018-02-06T21:34:00.270Z,99179.75
2018-02-06T21:40:04.826Z,99177.48
2018-02-06T21:46:09.456Z,99182.34
2018-02-06T21:52:14.069Z,99179.10
2018-02-06T21:58:18.592Z,99184.69
2018-02-06T22:04:23.542Z,99186.77
2018-02-06T22:10:29.586Z,99183.80
2018-02-06T22:16:34.389Z,99186.09
2018-02-06T22:22:39.658Z,99195.01
2018-02-06T22:28:44.323Z,99192.17
2018-02-06T22:34:49.863Z,99191.27
2018-02-06T22:40:54.486Z,99194.58
2018-02-06T22:46:59.015Z,99193.21
2018-02-06T22:53:04.261Z,99201.01
2018-02-06T22:59:08.858Z,99202.20
2018-02-06T23:05:13.357Z,99201.83
2018-02-06T23:11:17.980Z,99203.59
2018-02-06T23:17:23.260Z,99191.81
2018-02-06T23:23:28.201Z,99197.89
2018-02-06T23:29:32.791Z,99195.78
2018-02-06T23:35:37.304Z,99201.08
2018-02-06T23:41:42.652Z,99199.03
2018-02-06T23:47:47.275Z,99191.03
2018-02-06T23:53:51.908Z,99193.77
2018-02-06T23:59:56.427Z,99179.20
